Time;durP1;ratioP1;P1;durP2;ratioP2;P2;SDS_P1;SDS_P2;PMS_P1;PMS_P2;Temp;Humidity;BMP_temperature;BMP_pressure;BME280_temperature;BME280_humidity;BME280_pressure;Samples;Min_cycle;Max_cycle;Signal;HPM_P1;HPM_P2
2021/09/23 00:00:51;;;;;;;3.20;2.90;;;20.30;99.90;;;20.68;54.11;101955.59;4968136;28;100383;-45
2021/09/23 00:05:57;;;;;;;3.87;3.53;;;20.40;99.90;;;20.64;54.15;101950.53;4975088;28;97244;-43
2021/09/23 00:08:23;;;;;;;4.70;4.20;;;20.30;99.90;;;20.61;54.37;101940.84;4944842;27;98203;-48
2021/09/23 00:10:49;;;;;;;3.40;3.10;;;20.20;99.90;;;20.58;54.59;101942.84;4954728;28;99090;-45
2021/09/23 00:13:15;;;;;;;3.40;3.00;;;20.20;99.90;;;20.56;54.42;101921.50;4968043;27;98158;-44
2021/09/23 00:15:42;;;;;;;7.50;6.43;;;20.20;99.90;;;20.56;54.17;101931.34;4985320;27;98668;-48
2021/09/23 00:18:15;;;;;;;4.03;3.63;;;20.20;99.90;;;20.57;54.48;101925.03;4969520;27;97833;-46
2021/09/23 00:20:46;;;;;;;3.80;3.20;;;20.20;99.90;;;20.53;54.58;101907.38;4973586;27;97725;-43
2021/09/23 00:23:13;;;;;;;4.10;3.70;;;20.10;99.90;;;20.52;54.61;101900.28;4971101;27;98881;-47
2021/09/23 00:25:40;;;;;;;3.27;3.07;;;20.10;99.90;;;20.53;54.58;101896.66;4969938;28;98412;-47
2021/09/23 00:28:08;;;;;;;3.87;3.27;;;20.10;99.90;;;20.53;54.54;101893.97;4964086;28;98833;-51
2021/09/23 00:30:36;;;;;;;4.50;3.30;;;20.10;99.90;;;20.56;54.41;101880.41;4972210;28;98671;-44
2021/09/23 00:33:02;;;;;;;3.47;3.17;;;20.20;99.90;;;20.57;54.54;101874.97;4987379;27;98161;-54
2021/09/23 00:35:28;;;;;;;3.90;3.50;;;20.20;99.90;;;20.61;54.35;101881.00;4969426;28;97330;-47
2021/09/23 00:37:54;;;;;;;3.73;3.43;;;20.20;99.90;;;20.63;54.20;101879.97;4966562;28;97511;-46
2021/09/23 00:40:21;;;;;;;3.67;3.33;;;20.30;99.90;;;20.60;54.23;101879.28;4964990;28;99206;-45
2021/09/23 00:42:48;;;;;;;3.70;3.30;;;20.20;99.90;;;20.62;54.36;101882.72;4969371;28;97116;-44
2021/09/23 00:45:19;;;;;;;3.27;2.97;;;20.20;99.90;;;20.67;54.21;101894.03;4966766;27;98097;-45
2021/09/23 00:47:46;;;;;;;3.20;2.90;;;20.30;99.90;;;20.69;54.16;101894.84;4970544;27;98743;-45
2021/09/23 00:50:14;;;;;;;3.60;3.30;;;20.40;99.90;;;20.68;53.96;101893.09;4962943;27;99299;-43
2021/09/23 00:52:41;;;;;;;3.47;3.17;;;20.30;99.90;;;20.62;54.11;101893.44;4971880;27;98744;-44
2021/09/23 00:55:10;;;;;;;4.13;3.73;;;20.30;99.90;;;20.59;54.24;101896.31;4980267;27;97363;-48
2021/09/23 00:57:37;;;;;;;4.67;4.23;;;20.20;99.90;;;20.49;54.25;101894.16;4972318;27;104134;-48
2021/09/23 01:00:11;;;;;;;3.80;3.50;;;20.00;99.90;;;20.41;54.65;101892.84;4968563;27;97298;-43
2021/09/23 01:02:37;;;;;;;3.93;3.63;;;19.90;99.90;;;20.36;54.71;101893.09;4976129;27;99274;-46
2021/09/23 01:05:04;;;;;;;4.00;3.60;;;19.80;99.90;;;20.32;54.95;101890.69;4965942;27;98173;-44
2021/09/23 01:07:30;;;;;;;3.27;2.97;;;19.80;99.90;;;20.30;55.02;101882.75;4961891;28;97440;-44
2021/09/23 01:09:56;;;;;;;4.13;3.77;;;19.80;99.90;;;20.30;54.94;101877.38;4979214;27;98145;-43
2021/09/23 01:12:25;;;;;;;3.47;3.17;;;19.80;99.90;;;20.32;55.03;101870.13;4964070;27;98666;-48
2021/09/23 01:14:53;;;;;;;3.93;3.43;;;19.90;99.90;;;20.37;54.91;101861.81;4968062;27;99604;-44
2021/09/23 01:17:19;;;;;;;3.20;3.00;;;19.90;99.90;;;20.42;54.73;101855.28;4964162;27;100118;-47
2021/09/23 01:19:46;;;;;;;3.63;3.33;;;20.10;99.90;;;20.48;54.51;101846.88;4985465;28;97323;-44
2021/09/23 01:22:14;;;;;;;3.57;3.30;;;20.20;99.90;;;20.57;54.23;101844.63;4987979;28;97210;-44
2021/09/23 01:24:40;;;;;;;3.40;3.10;;;20.30;99.90;;;20.58;54.30;101854.38;4988472;28;98481;-46
2021/09/23 01:27:08;;;;;;;3.63;3.33;;;20.30;99.90;;;20.55;54.21;101857.25;4988976;27;99647;-43
2021/09/23 01:29:36;;;;;;;6.07;5.10;;;20.20;99.90;;;20.41;54.34;101853.56;4989195;28;98542;-46
2021/09/23 01:32:04;;;;;;;4.80;4.40;;;20.00;99.60;;;20.31;54.75;101852.31;4988974;27;96650;-51
2021/09/23 01:34:31;;;;;;;3.87;3.30;;;19.80;99.90;;;20.25;55.04;101858.00;4987664;28;97176;-43
2021/09/23 01:36:57;;;;;;;3.70;3.40;;;19.70;99.90;;;20.22;55.27;101847.47;4990098;28;97424;-44
2021/09/23 01:39:26;;;;;;;4.10;3.70;;;19.70;99.90;;;20.22;55.38;101842.13;4985693;28;110159;-45
2021/09/23 01:41:53;;;;;;;3.50;3.00;;;19.70;99.90;;;20.27;55.18;101825.81;4987323;28;98652;-46
2021/09/23 01:44:19;;;;;;;3.70;3.40;;;19.80;99.90;;;20.32;55.07;101824.56;4984923;28;96932;-48
2021/09/23 01:46:45;;;;;;;3.20;2.90;;;19.90;99.90;;;20.32;54.96;101826.38;4990690;27;97016;-47
2021/09/23 01:49:10;;;;;;;3.97;3.63;;;19.90;99.90;;;20.29;54.96;101821.22;4984460;28;98726;-48
2021/09/23 01:51:37;;;;;;;3.37;3.07;;;19.80;99.90;;;20.25;55.22;101809.78;5000894;27;97933;-50
2021/09/23 01:54:03;;;;;;;3.83;3.53;;;19.80;99.90;;;20.22;55.24;101804.63;4985478;28;97421;-49
2021/09/23 01:56:28;;;;;;;5.13;4.63;;;19.70;99.90;;;20.20;55.35;101809.19;4990107;28;98072;-46
2021/09/23 01:58:54;;;;;;;6.03;5.47;;;19.60;99.90;;;20.17;55.20;101796.00;4989421;27;96791;-47
2021/09/23 02:01:21;;;;;;;4.20;3.73;;;19.60;99.90;;;20.13;55.40;101794.44;4986749;27;97351;-46
2021/09/23 02:03:48;;;;;;;3.83;3.53;;;19.50;99.90;;;20.17;55.46;101793.31;4991471;28;98500;-49
2021/09/23 02:06:14;;;;;;;3.07;2.80;;;19.70;99.90;;;20.24;55.25;101792.00;4984396;28;97173;-49
2021/09/23 02:08:40;;;;;;;3.57;3.37;;;19.80;99.90;;;20.25;55.03;101793.72;4989426;28;97771;-47
2021/09/23 02:11:06;;;;;;;4.03;3.70;;;19.90;99.90;;;20.24;55.17;101791.13;5000661;28;97496;-49
2021/09/23 02:13:33;;;;;;;3.17;2.97;;;19.80;99.90;;;20.25;55.10;101793.72;4989244;27;112034;-46
2021/09/23 02:15:59;;;;;;;3.30;3.00;;;19.80;99.90;;;20.27;55.13;101797.19;4995061;28;97263;-44
2021/09/23 02:18:26;;;;;;;3.03;2.77;;;19.80;99.90;;;20.29;54.91;101795.28;4983057;27;99065;-48
2021/09/23 02:20:52;;;;;;;3.23;2.97;;;19.90;99.90;;;20.34;54.82;101787.81;4985507;28;97376;-44
2021/09/23 02:23:17;;;;;;;3.37;3.07;;;20.00;99.90;;;20.36;54.85;101785.91;4984507;27;101328;-46
2021/09/23 02:25:43;;;;;;;3.70;3.40;;;20.00;99.90;;;20.34;54.80;101766.38;4974840;28;97331;-46
2021/09/23 02:28:09;;;;;;;3.60;3.30;;;19.90;99.90;;;20.39;54.69;101758.94;4984542;27;97426;-44
2021/09/23 02:30:35;;;;;;;3.30;3.00;;;20.00;99.90;;;20.52;54.37;101764.47;5003539;27;98197;-44
2021/09/23 02:33:02;;;;;;;3.07;2.77;;;20.20;99.90;;;20.56;54.33;101762.47;4989380;28;97610;-52
2021/09/23 02:35:29;;;;;;;3.30;3.00;;;20.30;99.90;;;20.58;54.18;101763.25;4985803;28;98705;-45
2021/09/23 02:37:55;;;;;;;3.07;2.83;;;20.30;99.90;;;20.63;53.95;101755.78;4994482;28;100365;-49
2021/09/23 02:40:21;;;;;;;2.87;2.67;;;20.40;99.90;;;20.67;53.82;101757.31;4981528;27;97335;-47
2021/09/23 02:42:47;;;;;;;3.47;3.17;;;20.40;99.90;;;20.69;53.66;101758.13;4987723;28;97501;-45
2021/09/23 02:45:14;;;;;;;3.20;2.90;;;20.50;99.90;;;20.71;53.66;101753.50;4966523;28;111492;-44
2021/09/23 02:47:41;;;;;;;3.53;3.23;;;20.50;99.90;;;20.69;53.55;101760.78;4972587;28;98772;-46
2021/09/23 02:50:07;;;;;;;3.30;3.00;;;20.50;99.90;;;20.64;53.63;101753.00;4981970;27;99660;-49
2021/09/23 02:52:33;;;;;;;4.10;3.57;;;20.40;99.90;;;20.58;53.92;101752.53;5005561;27;97389;-46
2021/09/23 02:54:59;;;;;;;3.10;2.90;;;20.20;99.90;;;20.52;53.96;101750.19;4992744;28;97626;-43
2021/09/23 02:57:25;;;;;;;3.40;3.10;;;20.10;99.90;;;20.47;54.17;101745.97;4986386;28;104237;-45
2021/09/23 02:59:51;;;;;;;3.50;3.20;;;20.00;99.90;;;20.40;54.38;101739.25;4990176;28;97412;-46
2021/09/23 03:02:17;;;;;;;4.43;4.03;;;20.00;99.90;;;20.37;54.60;101744.78;4987706;28;97375;-53
2021/09/23 03:04:43;;;;;;;3.33;3.07;;;19.90;99.90;;;20.29;54.83;101757.78;4993990;28;97503;-44
2021/09/23 03:07:09;;;;;;;3.60;3.30;;;19.80;99.90;;;20.26;54.98;101757.97;4984195;28;99634;-45
2021/09/23 03:09:36;;;;;;;4.00;3.60;;;19.70;99.90;;;20.25;54.91;101748.16;4993454;27;97623;-45
2021/09/23 03:12:02;;;;;;;4.20;3.80;;;19.70;99.90;;;20.21;54.99;101752.84;4989585;28;97265;-48
2021/09/23 03:14:28;;;;;;;3.50;3.20;;;19.70;99.90;;;20.16;55.16;101741.56;4990467;27;97078;-45
2021/09/23 03:16:53;;;;;;;3.00;2.80;;;19.60;99.90;;;20.16;55.11;101746.06;4992114;27;98406;-46
2021/09/23 03:19:19;;;;;;;3.47;3.17;;;19.60;99.90;;;20.20;55.12;101747.59;4988893;27;97264;-45
2021/09/23 03:21:45;;;;;;;4.27;3.23;;;19.80;99.90;;;20.21;55.01;101743.94;4990602;28;98761;-44
2021/09/23 03:24:11;;;;;;;3.50;3.20;;;19.70;99.90;;;20.20;55.10;101731.50;4986061;28;97985;-43
2021/09/23 03:26:40;;;;;;;3.20;2.90;;;19.70;99.90;;;20.20;55.16;101727.03;4988322;28;108043;-46
2021/09/23 03:29:10;;;;;;;3.87;3.40;;;19.70;99.90;;;20.21;55.14;101722.53;4986861;27;97904;-45
2021/09/23 03:31:38;;;;;;;3.43;3.20;;;19.70;99.90;;;20.22;55.01;101716.22;4992065;28;96858;-45
2021/09/23 03:34:04;;;;;;;3.90;3.50;;;19.80;99.90;;;20.20;54.96;101716.31;4985031;28;97897;-47
2021/09/23 03:36:31;;;;;;;3.40;2.90;;;19.70;99.90;;;20.21;55.17;101722.53;4993113;28;97489;-47
2021/09/23 03:38:58;;;;;;;3.50;3.20;;;19.70;99.90;;;20.25;55.02;101707.13;4992896;27;97649;-47
2021/09/23 03:41:25;;;;;;;3.53;3.23;;;19.80;99.90;;;20.25;54.88;101707.97;5003229;27;98153;-48
2021/09/23 03:43:51;;;;;;;3.07;2.87;;;19.90;99.90;;;20.28;54.74;101704.28;4993483;27;97539;-46
2021/09/23 03:46:18;;;;;;;3.57;3.27;;;19.90;99.90;;;20.27;54.82;101706.09;4989940;27;98765;-47
2021/09/23 03:48:44;;;;;;;3.13;2.87;;;19.90;99.90;;;20.24;54.84;101713.44;4991124;28;99009;-43
2021/09/23 03:51:13;;;;;;;4.53;4.13;;;19.80;99.90;;;20.24;54.65;101716.97;4999898;27;96775;-44
2021/09/23 03:53:41;;;;;;;3.63;3.33;;;19.80;99.90;;;20.22;54.91;101718.88;4994164;28;99633;-43
2021/09/23 03:56:12;;;;;;;3.40;3.10;;;19.70;99.90;;;20.20;55.12;101720.78;4991605;27;100772;-47
2021/09/23 03:58:42;;;;;;;3.23;2.93;;;19.70;99.90;;;20.26;55.07;101715.09;4991517;28;97332;-48
2021/09/23 04:01:09;;;;;;;3.53;3.23;;;19.80;99.90;;;20.28;54.71;101713.19;4986854;27;97269;-44
2021/09/23 04:03:36;;;;;;;3.87;3.20;;;19.90;99.90;;;20.26;54.80;101707.06;4990479;28;97373;-44
2021/09/23 04:06:02;;;;;;;3.37;3.10;;;19.90;99.90;;;20.25;54.80;101694.59;4988347;28;100305;-50
2021/09/23 04:08:29;;;;;;;3.87;2.77;;;19.80;99.90;;;20.24;54.92;101695.53;4987304;28;105574;-47
2021/09/23 04:10:55;;;;;;;3.40;3.10;;;19.80;99.90;;;20.24;54.76;101684.81;4990085;28;96897;-46
2021/09/23 04:13:21;;;;;;;3.17;2.87;;;19.80;99.90;;;20.29;54.68;101692.59;4984573;28;97201;-45
2021/09/23 04:15:48;;;;;;;3.50;3.20;;;19.90;99.90;;;20.29;54.59;101698.84;4985750;28;98861;-47
2021/09/23 04:18:17;;;;;;;5.23;4.70;;;19.90;99.90;;;20.17;54.76;101705.78;4984258;28;99618;-43
2021/09/23 04:20:47;;;;;;;4.93;4.53;;;19.70;99.90;;;20.05;55.22;101694.91;4987039;28;97202;-46
2021/09/23 04:23:14;;;;;;;3.80;3.50;;;19.50;99.90;;;19.96;55.50;101708.84;4984777;28;97056;-45
2021/09/23 04:25:40;;;;;;;3.37;3.10;;;19.30;99.90;;;19.88;55.79;101704.81;4988670;28;97253;-45
2021/09/23 04:28:06;;;;;;;3.47;3.17;;;19.20;99.90;;;19.83;55.86;101706.91;4984054;27;97566;-44
2021/09/23 04:30:33;;;;;;;3.80;3.40;;;19.20;99.90;;;19.84;55.85;101702.41;4979880;28;97372;-45
2021/09/23 04:32:59;;;;;;;3.33;3.03;;;19.20;99.90;;;19.84;55.92;101697.91;4987393;28;97274;-46
2021/09/23 04:35:25;;;;;;;3.67;3.37;;;19.30;99.90;;;19.84;55.78;101708.63;4984861;27;96860;-45
2021/09/23 04:37:51;;;;;;;3.07;2.83;;;19.30;99.90;;;19.86;55.84;101701.38;4987402;28;106050;-48
2021/09/23 04:40:17;;;;;;;2.70;2.50;;;19.30;99.90;;;19.95;55.78;101699.09;4982810;28;97225;-46
2021/09/23 04:43:03;;;;;;;4.03;3.20;;;19.50;99.90;;;20.03;55.42;101692.34;4987104;28;97925;-47
2021/09/23 04:45:29;;;;;;;3.80;3.47;;;19.60;99.90;;;19.99;55.24;101698.84;5000172;27;100716;-44
2021/09/23 04:47:55;;;;;;;4.77;4.37;;;19.60;99.90;;;19.97;55.54;101697.22;4987522;28;97820;-48
2021/09/23 04:50:21;;;;;;;3.47;3.17;;;19.40;99.90;;;19.95;55.66;101704.44;4981313;28;97694;-45
2021/09/23 04:52:47;;;;;;;3.53;3.23;;;19.40;99.90;;;19.93;55.69;101696.50;4989620;28;97002;-47
2021/09/23 04:55:12;;;;;;;4.57;3.57;;;19.40;99.90;;;19.98;55.61;101704.28;4981481;28;98342;-43
2021/09/23 04:57:39;;;;;;;3.53;3.23;;;19.50;99.90;;;20.07;55.19;101698.38;4974429;28;97125;-50
2021/09/23 05:00:06;;;;;;;3.27;2.83;;;19.70;99.90;;;20.08;55.22;101695.59;4981755;28;97521;-44
2021/09/23 05:02:32;;;;;;;3.60;3.30;;;19.70;99.90;;;20.15;54.88;101701.47;4987002;28;97380;-44
2021/09/23 05:04:59;;;;;;;3.87;3.30;;;19.70;99.90;;;20.22;54.79;101702.81;4986857;28;97528;-45
2021/09/23 05:07:25;;;;;;;3.63;3.30;;;19.90;99.90;;;20.31;54.49;101707.63;4985591;27;97225;-45
2021/09/23 05:09:51;;;;;;;3.17;2.87;;;20.00;99.90;;;20.39;54.20;101705.34;4986710;28;96868;-44
2021/09/23 05:12:17;;;;;;;3.40;3.10;;;20.10;99.90;;;20.49;54.09;101698.50;4984692;28;98509;-46
2021/09/23 05:14:43;;;;;;;3.10;2.80;;;20.20;99.90;;;20.57;53.71;101700.75;4984350;28;102471;-46
2021/09/23 05:17:09;;;;;;;3.53;2.80;;;20.40;99.90;;;20.61;53.56;101709.44;4997575;27;100608;-47
2021/09/23 05:19:34;;;;;;;2.87;2.67;;;20.40;99.90;;;20.61;53.51;101712.13;4990014;28;101794;-44
2021/09/23 05:22:00;;;;;;;3.60;3.10;;;20.40;99.90;;;20.59;53.72;101711.38;4987365;28;97441;-45
2021/09/23 05:24:26;;;;;;;4.33;2.90;;;20.30;99.90;;;20.62;53.57;101721.91;5000468;27;98525;-47
2021/09/23 05:26:52;;;;;;;3.10;2.80;;;20.40;99.90;;;20.64;53.51;101726.19;5003692;27;99419;-46
2021/09/23 05:29:18;;;;;;;3.40;3.07;;;20.40;99.90;;;20.69;53.31;101728.63;4986537;28;97638;-44
2021/09/23 05:31:43;;;;;;;3.30;2.90;;;20.50;99.90;;;20.72;53.12;101729.28;4985949;28;113053;-47
2021/09/23 05:34:09;;;;;;;3.70;2.87;;;20.50;99.90;;;20.80;53.00;101731.47;4986101;28;125656;-46
2021/09/23 05:36:35;;;;;;;3.07;2.77;;;20.60;99.90;;;20.83;52.93;101730.44;4986697;28;99492;-46
2021/09/23 05:39:03;;;;;;;3.27;2.77;;;20.70;99.90;;;20.82;52.97;101724.19;4989596;28;97409;-44
2021/09/23 05:41:30;;;;;;;3.30;3.00;;;20.60;99.90;;;20.86;52.66;101720.41;4985965;27;97528;-45
2021/09/23 05:43:56;;;;;;;3.13;2.83;;;20.70;99.90;;;20.91;52.58;101723.66;4989351;28;101272;-47
2021/09/23 05:46:22;;;;;;;3.30;3.00;;;20.80;99.90;;;20.92;52.55;101720.00;4984748;27;103047;-50
2021/09/23 05:48:48;;;;;;;3.07;2.80;;;20.80;99.90;;;20.96;52.44;101721.53;4986534;28;98287;-45
2021/09/23 05:51:14;;;;;;;3.63;3.30;;;20.80;99.90;;;20.92;52.53;101719.13;4983414;27;96827;-44
2021/09/23 05:53:40;;;;;;;3.40;3.10;;;20.80;99.90;;;20.96;52.34;101716.16;4982814;28;97481;-50
2021/09/23 05:56:06;;;;;;;3.37;2.90;;;20.80;99.90;;;20.99;52.33;101716.00;4981366;28;98183;-45
2021/09/23 05:58:32;;;;;;;3.27;2.93;;;20.90;99.90;;;21.01;52.22;101714.06;4985009;28;99059;-45
2021/09/23 06:00:57;;;;;;;2.93;2.63;;;20.90;99.90;;;21.04;52.21;101719.25;4986740;28;102476;-43
2021/09/23 06:03:23;;;;;;;4.23;3.27;;;21.00;99.90;;;21.06;52.04;101701.22;4964166;28;111862;-47
2021/09/23 06:05:49;;;;;;;3.07;2.83;;;21.00;99.90;;;21.10;52.02;101702.75;4975578;28;101205;-48
2021/09/23 06:08:15;;;;;;;3.93;2.90;;;21.00;99.90;;;21.14;51.89;101697.22;4998770;27;97320;-46
2021/09/23 06:10:41;;;;;;;2.90;2.67;;;21.00;99.90;;;21.17;51.81;101702.38;4986196;28;98539;-48
2021/09/23 06:13:07;;;;;;;3.10;2.77;;;21.10;99.90;;;21.16;51.79;101697.97;4933113;27;98678;-45
2021/09/23 06:15:34;;;;;;;3.50;3.20;;;21.10;99.90;;;21.14;51.79;101698.06;4986256;28;100511;-48
2021/09/23 06:18:00;;;;;;;3.37;3.07;;;21.00;99.90;;;21.13;51.96;101698.16;4988550;28;97414;-49
2021/09/23 06:20:26;;;;;;;3.23;2.93;;;21.00;99.90;;;21.13;51.90;101696.34;4999734;27;97329;-44
2021/09/23 06:22:52;;;;;;;3.70;3.30;;;21.00;99.90;;;21.15;51.86;101688.19;4969706;28;97484;-47
2021/09/23 06:25:18;;;;;;;3.87;2.93;;;21.00;99.90;;;21.15;51.85;101690.88;4980337;27;99578;-45
2021/09/23 06:27:44;;;;;;;3.73;3.00;;;21.00;99.90;;;21.14;51.76;101686.47;4989869;28;98580;-48
2021/09/23 06:30:12;;;;;;;5.00;3.20;;;21.00;99.90;;;21.17;51.94;101691.63;4987039;27;97335;-47
2021/09/23 06:32:38;;;;;;;3.33;3.03;;;21.00;99.90;;;21.14;51.86;101695.38;4992560;27;98583;-45
2021/09/23 06:35:05;;;;;;;3.90;3.20;;;21.00;99.90;;;21.05;51.84;101691.44;4984524;27;97200;-44
2021/09/23 06:37:31;;;;;;;3.40;3.10;;;20.90;99.20;;;21.01;52.13;101681.88;4987710;28;97976;-46
2021/09/23 06:39:56;;;;;;;3.70;3.37;;;20.80;99.90;;;20.98;52.24;101681.22;4988653;28;115403;-46
2021/09/23 06:42:22;;;;;;;3.13;2.83;;;20.80;99.90;;;20.94;52.44;101680.53;4970826;28;110309;-47
2021/09/23 06:44:48;;;;;;;2.80;2.60;;;20.70;99.90;;;20.90;52.63;101673.66;4993402;27;97414;-44
2021/09/23 06:47:14;;;;;;;3.10;2.80;;;20.70;99.90;;;20.96;52.38;101667.03;4984058;27;98413;-43
2021/09/23 06:49:40;;;;;;;4.27;3.00;;;20.70;99.90;;;21.02;52.22;101666.66;4975809;28;96866;-49
2021/09/23 06:52:06;;;;;;;2.90;2.70;;;20.90;99.90;;;21.05;52.21;101670.00;4987684;27;98248;-45
2021/09/23 06:54:32;;;;;;;4.07;3.00;;;20.90;99.90;;;21.09;52.08;101674.19;4990140;28;97274;-46
2021/09/23 06:56:58;;;;;;;3.10;2.80;;;21.00;99.90;;;21.13;52.03;101680.25;4989028;28;98250;-45
2021/09/23 06:59:24;;;;;;;5.70;4.00;;;21.00;99.90;;;21.07;51.98;101670.75;4986509;27;97440;-45
2021/09/23 07:01:49;;;;;;;3.37;3.07;;;20.90;99.80;;;21.00;52.13;101661.38;4992444;27;101935;-46
2021/09/23 07:04:15;;;;;;;3.47;3.10;;;20.80;99.50;;;20.96;52.29;101667.88;4987551;27;100008;-45
2021/09/23 07:06:42;;;;;;;3.53;3.23;;;20.70;99.90;;;20.99;52.30;101673.09;4991487;28;97515;-46
2021/09/23 07:09:08;;;;;;;5.67;4.70;;;20.80;99.90;;;20.99;51.54;101678.44;4979964;28;98342;-50
2021/09/23 07:11:36;;;;;;;3.67;3.13;;;20.80;99.30;;;20.99;52.28;101682.94;4970172;27;97157;-49
2021/09/23 07:14:02;;;;;;;2.97;2.77;;;20.80;99.90;;;21.04;52.21;101679.00;4972123;28;99144;-48
2021/09/23 07:16:28;;;;;;;3.40;3.07;;;20.90;99.90;;;21.04;52.02;101670.09;4966564;27;97625;-46
2021/09/23 07:18:54;;;;;;;3.07;2.80;;;20.90;99.90;;;21.04;52.14;101665.59;4970552;27;102260;-50
2021/09/23 07:21:19;;;;;;;3.53;2.93;;;20.90;99.90;;;21.08;52.08;101671.63;4972434;27;98276;-49
2021/09/23 07:23:45;;;;;;;3.00;2.80;;;20.90;99.90;;;21.12;51.92;101677.63;4963398;27;110746;-45
2021/09/23 07:26:11;;;;;;;3.00;2.80;;;21.00;99.90;;;21.09;51.81;101673.34;4962463;28;99993;-45
2021/09/23 07:28:37;;;;;;;3.30;2.80;;;21.00;99.90;;;21.01;52.29;101671.16;4951369;28;99986;-48
2021/09/23 07:31:03;;;;;;;2.77;2.57;;;20.80;99.90;;;20.90;52.37;101673.66;4960734;28;98912;-50
2021/09/23 07:33:29;;;;;;;3.50;3.17;;;20.60;99.90;;;20.94;52.40;101664.44;4981027;27;102190;-49
2021/09/23 07:35:55;;;;;;;3.23;2.77;;;20.70;99.90;;;20.99;52.21;101666.84;4964600;28;98759;-48
2021/09/23 07:38:21;;;;;;;5.43;4.40;;;20.80;99.90;;;20.99;51.66;101657.00;4966404;28;98468;-49
2021/09/23 07:40:48;;;;;;;2.67;2.47;;;20.90;99.20;;;21.01;52.18;101654.19;4968577;28;98543;-48
2021/09/23 07:43:14;;;;;;;3.13;2.67;;;20.90;99.90;;;21.07;52.13;101654.66;4967974;27;99358;-51
2021/09/23 07:45:40;;;;;;;12.07;6.97;;;20.90;99.90;;;20.92;50.93;101644.91;4969348;28;101031;-49
2021/09/23 07:48:06;;;;;;;10.37;6.60;;;20.80;98.40;;;20.86;51.06;101639.94;4960847;27;99434;-44
2021/09/23 07:50:31;;;;;;;3.33;3.03;;;20.60;99.00;;;20.73;53.01;101634.50;4966194;28;99032;-44
2021/09/23 07:52:57;;;;;;;12.10;8.10;;;20.40;99.90;;;20.72;49.92;101637.28;4983776;27;97904;-49
2021/09/23 07:55:23;;;;;;;8.37;4.00;;;20.40;99.30;;;20.69;53.09;101638.34;4964133;27;97738;-50
2021/09/23 07:57:49;;;;;;;9.23;7.10;;;20.30;99.90;;;20.36;51.52;101651.94;4968828;28;99402;-47
2021/09/23 08:00:16;;;;;;;12.63;7.17;;;20.00;99.70;;;20.29;50.14;101645.25;4977283;27;98526;-45
2021/09/23 08:02:42;;;;;;;9.00;6.60;;;19.90;99.80;;;20.19;51.05;101642.25;4969276;28;99835;-47
2021/09/23 08:05:08;;;;;;;10.17;5.87;;;19.70;99.90;;;20.08;53.91;101642.03;4960719;28;97183;-48
2021/09/23 08:07:34;;;;;;;12.27;6.20;;;19.60;99.90;;;20.05;54.32;101638.69;4983128;27;97712;-46
2021/09/23 08:10:00;;;;;;;8.57;5.60;;;19.50;99.90;;;20.14;54.56;101648.84;4971238;28;97566;-52
2021/09/23 08:12:27;;;;;;;6.60;5.30;;;19.70;99.90;;;20.11;53.70;101649.03;4964757;27;97401;-46
2021/09/23 08:14:53;;;;;;;6.97;5.80;;;19.70;99.90;;;20.09;51.21;101642.88;4973520;27;102000;-46
2021/09/23 08:17:19;;;;;;;6.53;5.40;;;19.70;99.90;;;19.91;51.01;101637.69;4982089;27;97880;-46
2021/09/23 08:19:45;;;;;;;6.37;5.67;;;19.50;99.90;;;20.08;54.53;101630.44;4969919;28;98477;-50
2021/09/23 08:22:10;;;;;;;5.90;5.30;;;19.70;99.90;;;20.18;53.52;101637.00;4963708;27;99534;-44
2021/09/23 08:24:37;;;;;;;8.97;5.90;;;19.90;99.90;;;20.21;54.46;101632.31;4970562;27;97820;-48
2021/09/23 08:27:03;;;;;;;7.30;5.07;;;19.90;99.90;;;20.29;53.59;101637.22;4964761;28;99468;-51
2021/09/23 08:29:29;;;;;;;3.37;2.80;;;20.10;99.90;;;20.24;54.01;101631.25;4965995;28;105545;-47
2021/09/23 08:31:55;;;;;;;3.63;3.10;;;19.90;99.90;;;20.18;54.19;101620.91;4964390;28;97360;-48
2021/09/23 08:34:21;;;;;;;7.20;5.00;;;19.90;99.90;;;20.13;53.94;101617.66;4961109;27;99548;-45
2021/09/23 08:36:47;;;;;;;6.33;5.30;;;19.80;99.90;;;20.26;52.87;101599.03;4970478;28;99304;-47
2021/09/23 08:39:13;;;;;;;5.23;3.37;;;20.00;99.90;;;20.19;53.25;101601.22;4960409;27;98427;-45
2021/09/23 08:41:40;;;;;;;5.40;4.90;;;19.90;99.90;;;20.11;50.84;101595.47;4967673;28;97330;-49
2021/09/23 08:44:05;;;;;;;6.00;4.87;;;19.90;99.90;;;20.09;53.30;101589.31;4965384;27;97590;-48
2021/09/23 08:46:33;;;;;;;7.63;5.33;;;19.80;99.90;;;20.18;53.22;101583.41;4966005;28;98639;-45
2021/09/23 08:49:03;;;;;;;6.70;4.60;;;19.90;99.90;;;20.24;52.13;101577.66;4966932;27;98867;-44
2021/09/23 08:51:29;;;;;;;7.13;4.13;;;19.90;99.90;;;20.13;51.63;101582.84;4961082;28;101570;-46
2021/09/23 08:53:55;;;;;;;10.00;4.70;;;19.90;99.90;;;20.14;50.80;101573.84;4967929;28;99350;-48
2021/09/23 08:56:23;;;;;;;6.80;5.03;;;19.90;99.90;;;20.33;54.13;101574.44;4963391;28;98220;-47
2021/09/23 08:58:49;;;;;;;5.13;4.63;;;20.10;99.90;;;20.39;51.00;101576.72;4967544;27;97572;-51
2021/09/23 09:01:18;;;;;;;6.53;4.13;;;20.20;99.90;;;20.49;53.70;101574.38;4962184;28;100050;-46
2021/09/23 09:03:46;;;;;;;6.97;5.00;;;20.30;99.90;;;20.60;53.37;101557.63;4970617;27;98789;-45
2021/09/23 09:06:13;;;;;;;6.33;4.00;;;20.50;99.90;;;20.64;52.51;101551.09;4961684;27;97790;-48
2021/09/23 09:08:42;;;;;;;8.90;4.63;;;20.50;99.90;;;20.59;51.52;101551.41;4963573;28;97192;-48
2021/09/23 09:11:12;;;;;;;4.47;3.83;;;20.50;99.60;;;20.62;52.22;101544.97;4962741;28;102191;-43
2021/09/23 09:13:45;;;;;;;7.10;4.60;;;20.40;99.90;;;20.66;53.21;101535.78;4951617;28;99067;-48
2021/09/23 09:16:15;;;;;;;5.00;4.43;;;20.40;99.90;;;20.60;50.58;101538.84;4979511;27;100055;-45
2021/09/23 09:18:44;;;;;;;8.33;5.23;;;20.40;99.80;;;20.74;53.04;101538.84;4963915;28;97685;-50
2021/09/23 09:21:18;;;;;;;8.50;4.70;;;20.60;99.90;;;20.80;52.69;101538.44;4964562;27;98707;-45
2021/09/23 09:23:58;;;;;;;8.20;4.83;;;20.70;99.90;;;20.84;52.77;101539.97;4968736;28;100255;-44
2021/09/23 09:26:37;;;;;;;8.40;4.77;;;20.70;99.90;;;20.88;52.19;101535.25;4979616;27;98045;-47
2021/09/23 09:29:06;;;;;;;7.80;4.40;;;20.80;99.90;;;20.93;52.55;101534.00;4963650;28;101359;-50
2021/09/23 09:31:34;;;;;;;8.53;3.87;;;20.90;99.90;;;20.90;51.58;101536.88;4969076;27;101189;-44
2021/09/23 09:34:02;;;;;;;6.43;4.00;;;20.80;99.70;;;20.92;51.21;101534.97;4967597;28;99266;-44
2021/09/23 09:36:49;;;;;;;7.57;4.03;;;20.80;99.00;;;21.00;51.78;101538.00;4964705;27;99434;-47
2021/09/23 09:39:21;;;;;;;9.43;4.40;;;20.90;99.90;;;21.00;49.15;101535.34;4963120;28;101086;-48
2021/09/23 09:41:50;;;;;;;6.30;4.50;;;21.00;99.30;;;20.89;49.13;101529.81;4967553;28;97384;-50
2021/09/23 09:44:17;;;;;;;6.73;4.37;;;20.90;98.70;;;20.96;51.20;101536.47;4966568;28;98909;-48
2021/09/23 09:46:53;;;;;;;7.73;4.97;;;20.90;99.80;;;21.01;49.77;101531.69;4970982;27;96809;-46
2021/09/23 09:49:22;;;;;;;4.60;3.27;;;21.00;99.70;;;21.06;51.92;101524.19;4963912;27;98976;-47
2021/09/23 09:51:58;;;;;;;5.03;4.03;;;21.00;99.90;;;21.09;49.72;101523.13;4968784;27;100384;-45
2021/09/23 09:54:24;;;;;;;7.10;4.97;;;21.10;99.50;;;21.07;50.93;101523.22;4963638;28;98192;-48
2021/09/23 09:57:04;;;;;;;5.33;3.87;;;21.00;99.80;;;21.16;51.39;101513.72;4965183;28;97635;-46
2021/09/23 09:59:30;;;;;;;6.47;4.73;;;21.10;99.90;;;21.13;50.49;101513.94;4965729;28;102082;-47
2021/09/23 10:01:58;;;;;;;8.20;4.00;;;21.20;99.30;;;21.19;51.50;101507.28;4968955;28;99785;-43
2021/09/23 10:04:32;;;;;;;8.17;4.73;;;21.20;99.80;;;21.21;50.78;101508.03;4962820;28;97761;-48
2021/09/23 10:07:02;;;;;;;8.00;4.77;;;21.20;99.50;;;21.25;50.95;101506.88;4968752;28;98870;-46
2021/09/23 10:09:32;;;;;;;6.30;4.67;;;21.20;99.50;;;21.19;50.51;101497.41;4966291;27;98805;-45
2021/09/23 10:11:58;;;;;;;3.93;3.13;;;21.20;99.10;;;21.25;50.95;101506.88;4968525;28;99812;-44